createdAt,value
2018-04-15T00:02:15.442Z,99.90
2018-04-15T00:04:43.886Z,99.90
2018-04-15T00:07:12.250Z,99.90
2018-04-15T00:09:40.497Z,99.90
2018-04-15T00:12:08.687Z,99.90
2018-04-15T00:14:37.734Z,99.90
2018-04-15T00:17:06.757Z,99.90
2018-04-15T00:19:35.794Z,99.90
2018-04-15T00:22:04.020Z,99.90
2018-04-15T00:24:32.248Z,99.90
2018-04-15T00:27:00.437Z,99.90
2018-04-15T00:29:28.831Z,99.90
2018-04-15T00:31:57.054Z,99.90
2018-04-15T00:34:25.291Z,99.90
2018-04-15T00:36:54.117Z,99.90
2018-04-15T00:39:22.330Z,99.90
2018-04-15T00:41:50.568Z,99.90
2018-04-15T00:44:18.785Z,99.90
2018-04-15T00:46:47.102Z,99.90
2018-04-15T00:49:16.671Z,99.90
2018-04-15T00:51:45.702Z,99.90
2018-04-15T00:54:18.583Z,99.90
2018-04-15T00:56:48.283Z,99.90
2018-04-15T00:59:16.547Z,99.90
2018-04-15T01:01:44.736Z,99.90
2018-04-15T01:04:12.914Z,99.90
2018-04-15T01:06:41.896Z,99.90
2018-04-15T01:09:10.078Z,99.90
2018-04-15T01:11:38.275Z,99.90
2018-04-15T01:14:06.486Z,99.90
2018-04-15T01:16:34.785Z,99.90
2018-04-15T01:19:03.020Z,99.90
2018-04-15T01:21:31.434Z,99.90
2018-04-15T01:23:59.843Z,99.90
2018-04-15T01:26:28.045Z,99.90
2018-04-15T01:28:56.712Z,99.90
2018-04-15T01:31:25.754Z,99.90
2018-04-15T01:33:54.020Z,99.90
2018-04-15T01:36:23.257Z,99.90
2018-04-15T01:38:51.481Z,99.90
2018-04-15T01:41:19.847Z,99.90
2018-04-15T01:43:48.216Z,99.90
2018-04-15T01:46:17.208Z,99.90
2018-04-15T01:48:45.411Z,99.90
2018-04-15T01:51:13.615Z,99.90
2018-04-15T01:53:42.024Z,99.90
2018-04-15T01:56:10.297Z,99.90
2018-04-15T01:58:39.323Z,99.90
2018-04-15T02:01:08.321Z,99.90
2018-04-15T02:03:37.345Z,99.90
2018-04-15T02:06:05.666Z,99.90
2018-04-15T02:08:34.052Z,99.90
2018-04-15T02:11:03.034Z,99.90
2018-04-15T02:13:31.274Z,99.90
2018-04-15T02:16:00.312Z,99.90
2018-04-15T02:18:28.593Z,99.90
2018-04-15T02:20:56.807Z,99.90
2018-04-15T02:23:25.135Z,99.90
2018-04-15T02:25:53.324Z,99.90
2018-04-15T02:28:21.528Z,99.90
2018-04-15T02:30:49.877Z,99.90
2018-04-15T02:33:18.160Z,99.90
2018-04-15T02:35:46.479Z,99.90
2018-04-15T02:38:17.070Z,99.90
2018-04-15T02:40:45.273Z,99.90
2018-04-15T02:43:14.440Z,99.90
2018-04-15T02:45:42.671Z,99.90
2018-04-15T02:48:12.577Z,99.90
2018-04-15T02:50:41.083Z,99.90
2018-04-15T02:53:09.352Z,99.90
2018-04-15T02:55:37.688Z,99.90
2018-04-15T02:58:05.947Z,99.90
2018-04-15T03:00:34.202Z,99.90
2018-04-15T03:03:02.476Z,99.90
2018-04-15T03:05:30.810Z,99.90
2018-04-15T03:07:59.056Z,99.90
2018-04-15T03:10:27.348Z,99.90
2018-04-15T03:12:55.558Z,99.90
2018-04-15T03:15:24.728Z,99.90
2018-04-15T03:17:52.958Z,99.90
2018-04-15T03:20:21.714Z,99.90
2018-04-15T03:22:50.065Z,99.90
2018-04-15T03:25:18.265Z,99.90
2018-04-15T03:27:47.333Z,99.90
2018-04-15T03:30:15.533Z,99.90
2018-04-15T03:32:43.773Z,99.90
2018-04-15T03:35:12.172Z,99.90
2018-04-15T03:37:41.355Z,99.90
2018-04-15T03:40:09.768Z,99.90
2018-04-15T03:42:38.212Z,99.90
2018-04-15T03:45:06.627Z,99.90
2018-04-15T03:47:34.995Z,99.90
2018-04-15T03:50:03.375Z,99.90
2018-04-15T03:52:31.759Z,99.90
2018-04-15T03:55:00.241Z,99.90
2018-04-15T03:57:28.501Z,99.90
2018-04-15T03:59:56.710Z,99.90
2018-04-15T04:02:24.930Z,99.90
2018-04-15T04:04:53.161Z,99.90
2018-04-15T04:07:21.524Z,99.90
2018-04-15T04:09:50.018Z,99.90
2018-04-15T04:12:18.252Z,99.90
2018-04-15T04:14:47.198Z,99.90
2018-04-15T04:17:16.252Z,99.90
2018-04-15T04:19:56.560Z,99.90
2018-04-15T04:25:43.550Z,99.90
2018-04-15T04:28:11.807Z,99.90
2018-04-15T04:30:41.547Z,99.90
2018-04-15T04:33:09.798Z,99.90
2018-04-15T04:35:38.816Z,99.90
2018-04-15T04:38:07.036Z,99.90
2018-04-15T04:40:36.152Z,99.90
2018-04-15T04:43:05.406Z,99.90
2018-04-15T04:45:33.636Z,99.90
2018-04-15T04:48:02.066Z,99.90
2018-04-15T04:50:30.466Z,99.90
2018-04-15T04:52:58.741Z,99.90
2018-04-15T04:55:27.135Z,99.90
2018-04-15T04:57:55.489Z,99.90
2018-04-15T05:00:23.971Z,99.90
2018-04-15T05:02:52.267Z,99.90
2018-04-15T05:05:20.598Z,99.90
2018-04-15T05:07:48.907Z,99.90
2018-04-15T05:10:17.288Z,99.90
2018-04-15T05:12:46.621Z,99.90
2018-04-15T05:15:15.840Z,99.90
2018-04-15T05:17:44.111Z,99.90
2018-04-15T05:20:13.342Z,99.90
2018-04-15T05:22:41.750Z,99.90
2018-04-15T05:25:10.136Z,99.90
2018-04-15T05:27:38.729Z,99.90
2018-04-15T05:30:07.817Z,99.90
2018-04-15T05:32:36.219Z,99.90
2018-04-15T05:35:05.393Z,99.90
2018-04-15T05:37:33.789Z,99.90
2018-04-15T05:40:02.129Z,99.90
2018-04-15T05:42:30.533Z,99.90
2018-04-15T05:44:59.920Z,99.90
2018-04-15T05:47:28.506Z,99.90
2018-04-15T05:49:56.734Z,99.90
2018-04-15T05:52:25.942Z,99.90
2018-04-15T05:54:54.285Z,99.90
2018-04-15T05:57:22.677Z,99.90
2018-04-15T05:59:50.972Z,99.90
2018-04-15T06:02:19.999Z,99.90
2018-04-15T06:04:48.342Z,99.90
2018-04-15T06:07:17.485Z,99.90
2018-04-15T06:09:48.140Z,99.90
2018-04-15T06:12:16.843Z,99.90
2018-04-15T06:14:45.104Z,99.90
2018-04-15T06:17:13.598Z,99.90
2018-04-15T06:19:42.181Z,99.90
2018-04-15T06:22:11.322Z,99.90
2018-04-15T06:24:39.787Z,99.90
2018-04-15T06:27:08.142Z,99.90
2018-04-15T06:29:36.747Z,99.90
2018-04-15T06:32:05.227Z,99.90
2018-04-15T06:34:34.315Z,99.90
2018-04-15T06:37:03.389Z,99.90
2018-04-15T06:39:31.698Z,99.90
2018-04-15T06:42:00.730Z,99.90
2018-04-15T06:44:29.765Z,99.90
2018-04-15T06:46:58.060Z,99.90
2018-04-15T06:49:27.219Z,99.90
2018-04-15T06:51:55.575Z,99.90
2018-04-15T06:54:24.569Z,99.90
2018-04-15T06:56:53.551Z,99.90
2018-04-15T06:59:22.166Z,99.90
2018-04-15T07:01:50.442Z,99.90
2018-04-15T07:04:19.442Z,99.90
2018-04-15T07:06:48.043Z,99.90
2018-04-15T07:09:16.298Z,99.90
2018-04-15T07:11:44.744Z,99.90
2018-04-15T07:14:14.499Z,99.90
2018-04-15T07:16:43.696Z,99.90
2018-04-15T07:19:12.707Z,99.90
2018-04-15T07:21:41.946Z,99.90
2018-04-15T07:24:10.966Z,99.90
2018-04-15T07:26:39.323Z,99.90
2018-04-15T07:29:07.633Z,99.90
2018-04-15T07:31:36.637Z,99.90
2018-04-15T07:34:05.165Z,99.90
2018-04-15T07:36:33.500Z,99.90
2018-04-15T07:39:02.499Z,99.90
2018-04-15T07:41:30.758Z,99.90
2018-04-15T07:44:00.354Z,99.90
2018-04-15T07:46:29.420Z,99.90
2018-04-15T07:48:57.684Z,99.90
2018-04-15T07:51:26.786Z,99.90
2018-04-15T07:53:55.110Z,99.90
2018-04-15T07:56:23.546Z,99.90
2018-04-15T07:58:51.758Z,99.90
2018-04-15T08:01:20.096Z,99.90
2018-04-15T08:03:48.330Z,99.90
2018-04-15T08:06:17.333Z,99.90
2018-04-15T08:08:46.062Z,99.90
2018-04-15T08:11:14.344Z,99.90
2018-04-15T08:13:42.624Z,99.90
2018-04-15T08:16:10.975Z,99.90
2018-04-15T08:18:39.240Z,99.90
2018-04-15T08:21:07.470Z,99.90
2018-04-15T08:23:36.954Z,99.90
2018-04-15T08:26:05.242Z,99.90
2018-04-15T08:28:33.717Z,99.90
2018-04-15T08:31:02.027Z,99.90
2018-04-15T08:33:30.358Z,99.90
2018-04-15T08:35:58.754Z,99.90
2018-04-15T08:38:27.009Z,99.90
2018-04-15T08:40:55.483Z,99.90
2018-04-15T08:43:24.444Z,99.90
2018-04-15T08:45:52.649Z,99.90
2018-04-15T08:48:21.657Z,99.90
2018-04-15T08:50:50.065Z,99.90
2018-04-15T08:53:18.319Z,99.90
2018-04-15T08:55:47.631Z,99.90
2018-04-15T08:58:15.886Z,99.90
2018-04-15T09:00:44.246Z,99.90
2018-04-15T09:03:13.295Z,99.90
2018-04-15T09:05:41.875Z,99.90
2018-04-15T09:08:10.113Z,99.90
2018-04-15T09:10:39.180Z,99.90
2018-04-15T09:13:08.179Z,99.50
2018-04-15T09:15:37.948Z,99.90
2018-04-15T09:18:06.222Z,99.90
2018-04-15T09:20:34.481Z,99.60
2018-04-15T09:23:02.724Z,99.90
2018-04-15T09:25:31.010Z,99.90
2018-04-15T09:27:59.245Z,99.90
2018-04-15T09:30:27.508Z,99.90
2018-04-15T09:32:55.757Z,98.60
2018-04-15T09:35:23.973Z,99.00
2018-04-15T09:37:52.217Z,99.70
2018-04-15T09:43:24.686Z,97.90
2018-04-15T09:45:52.881Z,97.90
2018-04-15T09:48:21.977Z,98.70
2018-04-15T09:50:51.951Z,97.50
2018-04-15T09:53:20.217Z,97.50
2018-04-15T09:55:48.517Z,96.60
2018-04-15T09:58:17.537Z,94.90
2018-04-15T10:00:47.512Z,95.10
2018-04-15T10:03:16.144Z,95.10
2018-04-15T10:05:44.437Z,94.80
2018-04-15T10:08:12.692Z,94.40
2018-04-15T10:10:41.968Z,94.60
2018-04-15T10:13:16.756Z,94.60
2018-04-15T10:15:45.404Z,95.30
2018-04-15T10:18:13.912Z,95.50
2018-04-15T10:20:43.337Z,95.40
2018-04-15T10:23:11.532Z,95.40
2018-04-15T10:25:39.814Z,95.80
2018-04-15T10:28:08.051Z,95.30
2018-04-15T10:30:37.101Z,95.20
2018-04-15T10:33:05.373Z,95.20
2018-04-15T10:35:34.377Z,95.50
2018-04-15T10:38:02.597Z,94.00
2018-04-15T10:40:30.820Z,96.40
2018-04-15T10:42:59.185Z,93.90
2018-04-15T10:45:27.387Z,95.20
2018-04-15T10:47:55.606Z,94.80
2018-04-15T10:50:24.071Z,96.80
2018-04-15T10:52:52.313Z,94.50
2018-04-15T10:55:20.582Z,94.00
2018-04-15T10:57:48.806Z,94.00
2018-04-15T11:00:17.045Z,93.60
2018-04-15T11:02:45.457Z,93.10
2018-04-15T11:05:15.230Z,93.30
2018-04-15T11:07:43.457Z,93.20
2018-04-15T11:10:12.461Z,95.30
2018-04-15T11:12:41.569Z,94.60
2018-04-15T11:15:10.554Z,94.70
2018-04-15T11:17:39.519Z,94.50
2018-04-15T11:20:07.775Z,94.40
2018-04-15T11:22:36.020Z,94.00
2018-04-15T11:25:04.384Z,92.50
2018-04-15T11:27:32.644Z,93.70
2018-04-15T11:30:00.850Z,93.80
2018-04-15T11:32:29.850Z,92.50
2018-04-15T11:34:58.864Z,92.70
2018-04-15T11:37:27.122Z,92.70
2018-04-15T11:39:55.395Z,92.30
2018-04-15T11:42:23.644Z,92.70
2018-04-15T11:44:53.515Z,93.40
2018-04-15T11:47:21.722Z,93.40
2018-04-15T11:49:49.977Z,94.00
2018-04-15T11:52:19.752Z,93.60
2018-04-15T11:54:48.019Z,93.60
2018-04-15T11:57:16.293Z,94.10
2018-04-15T11:59:45.297Z,91.90
2018-04-15T12:02:13.573Z,91.50
2018-04-15T12:04:41.875Z,91.90
2018-04-15T12:07:11.116Z,94.20
2018-04-15T12:09:40.972Z,93.60
2018-04-15T12:12:09.250Z,93.50
2018-04-15T12:14:38.204Z,93.40
2018-04-15T12:17:07.256Z,91.10
2018-04-15T12:19:35.557Z,91.10
2018-04-15T12:22:04.678Z,91.50
2018-04-15T12:24:33.657Z,91.60
2018-04-15T12:27:02.025Z,91.60
2018-04-15T12:29:30.261Z,90.10
2018-04-15T12:31:58.464Z,91.40
2018-04-15T12:34:26.780Z,91.00
2018-04-15T12:36:55.010Z,91.30
2018-04-15T12:39:23.957Z,92.10
2018-04-15T12:41:52.278Z,92.10
2018-04-15T12:44:20.529Z,91.40
2018-04-15T12:46:48.775Z,92.10
2018-04-15T12:49:17.001Z,92.80
2018-04-15T12:51:45.257Z,93.60
2018-04-15T12:54:13.456Z,93.00
2018-04-15T12:56:41.734Z,92.20
2018-04-15T12:59:10.727Z,92.30
2018-04-15T13:01:39.349Z,92.40
2018-04-15T13:04:07.638Z,92.60
2018-04-15T13:06:35.859Z,93.10
2018-04-15T13:09:04.295Z,93.00
2018-04-15T13:11:32.511Z,93.30
2018-04-15T13:14:01.501Z,94.10
2018-04-15T13:16:30.485Z,94.40
2018-04-15T13:18:58.729Z,94.40
2018-04-15T13:21:28.007Z,94.20
2018-04-15T13:23:56.272Z,95.10
2018-04-15T13:26:25.256Z,96.80
2018-04-15T13:28:54.557Z,98.40
2018-04-15T13:31:23.569Z,97.70
2018-04-15T13:33:52.546Z,98.80
2018-04-15T13:36:21.526Z,97.00
2018-04-15T13:38:50.605Z,97.60
2018-04-15T13:41:18.868Z,97.60
2018-04-15T13:43:47.083Z,97.40
2018-04-15T13:46:15.339Z,95.70
2018-04-15T13:48:45.040Z,93.40
2018-04-15T13:51:13.426Z,94.30
2018-04-15T13:53:42.482Z,91.60
2018-04-15T13:56:10.758Z,91.60
2018-04-15T13:58:39.016Z,92.90
2018-04-15T14:01:07.346Z,92.80
2018-04-15T14:03:35.580Z,91.50
2018-04-15T14:06:03.905Z,91.20
2018-04-15T14:08:32.172Z,90.70
2018-04-15T14:11:00.467Z,91.40
2018-04-15T14:13:30.229Z,92.30
2018-04-15T14:15:59.208Z,93.60
2018-04-15T14:18:27.552Z,93.60
2018-04-15T14:20:55.838Z,93.50
2018-04-15T14:23:24.158Z,92.60
2018-04-15T14:25:53.133Z,93.80
2018-04-15T14:28:22.181Z,94.40
2018-04-15T14:30:50.659Z,94.40
2018-04-15T14:33:18.951Z,93.60
2018-04-15T14:35:47.241Z,93.50
2018-04-15T14:38:16.025Z,93.70
2018-04-15T14:40:44.319Z,93.60
2018-04-15T14:43:14.045Z,93.50
2018-04-15T14:45:42.395Z,93.50
2018-04-15T14:48:11.380Z,93.10
2018-04-15T14:50:39.681Z,92.30
2018-04-15T14:53:08.809Z,93.20
2018-04-15T14:55:37.154Z,93.20
2018-04-15T14:58:06.909Z,93.00
2018-04-15T15:00:35.879Z,93.30
2018-04-15T15:03:04.390Z,93.40
2018-04-15T15:05:32.668Z,94.30
2018-04-15T15:08:01.680Z,94.80
2018-04-15T15:10:30.975Z,95.30
2018-04-15T15:12:59.930Z,94.80
2018-04-15T15:15:28.185Z,94.80
2018-04-15T15:17:56.465Z,94.40
2018-04-15T15:20:24.948Z,93.70
2018-04-15T15:22:54.694Z,92.40
2018-04-15T15:25:23.020Z,92.40
2018-04-15T15:27:51.229Z,93.00
2018-04-15T15:30:20.992Z,92.00
2018-04-15T15:32:49.404Z,92.00
2018-04-15T15:35:19.179Z,91.10
2018-04-15T15:37:48.231Z,91.20
2018-04-15T15:40:16.460Z,91.20
2018-04-15T15:42:45.465Z,90.50
2018-04-15T15:45:13.832Z,90.40
2018-04-15T15:47:42.794Z,89.50
2018-04-15T15:50:12.526Z,88.80
2018-04-15T15:52:41.553Z,88.70
2018-04-15T15:55:09.736Z,87.30
2018-04-15T15:57:37.961Z,85.90
2018-04-15T16:00:06.333Z,85.90
2018-04-15T16:02:36.219Z,85.00
2018-04-15T16:05:04.459Z,84.90
2018-04-15T16:07:32.781Z,89.40
2018-04-15T16:10:00.996Z,86.10
2018-04-15T16:12:30.665Z,85.70
2018-04-15T16:14:58.873Z,85.60
2018-04-15T16:17:27.163Z,83.30
2018-04-15T16:19:56.312Z,81.30
2018-04-15T16:22:24.519Z,81.10
2018-04-15T16:24:53.599Z,78.90
2018-04-15T16:27:21.821Z,78.80
2018-04-15T16:29:50.986Z,84.00
2018-04-15T16:32:20.787Z,82.90
2018-04-15T16:34:49.026Z,82.90
2018-04-15T16:37:17.267Z,84.80
2018-04-15T16:39:45.561Z,82.50
2018-04-15T16:42:14.672Z,84.70
2018-04-15T16:44:42.925Z,84.70
2018-04-15T16:47:11.233Z,85.10
2018-04-15T16:49:39.538Z,86.40
2018-04-15T16:52:08.547Z,89.60
2018-04-15T16:54:36.938Z,89.60
2018-04-15T16:57:05.193Z,88.40
2018-04-15T16:59:33.459Z,88.40
2018-04-15T17:02:01.676Z,88.10
2018-04-15T17:04:29.943Z,90.60
2018-04-15T17:06:59.337Z,90.00
2018-04-15T17:09:27.542Z,90.00
2018-04-15T17:11:57.325Z,88.10
2018-04-15T17:14:26.338Z,88.70
2018-04-15T17:16:54.688Z,88.90
2018-04-15T17:19:23.067Z,88.80
2018-04-15T17:21:51.323Z,89.70
2018-04-15T17:24:19.539Z,89.60
2018-04-15T17:26:48.643Z,90.40
2018-04-15T17:29:16.927Z,90.40
2018-04-15T17:31:46.717Z,91.20
2018-04-15T17:34:15.061Z,91.20
2018-04-15T17:36:43.262Z,91.70
2018-04-15T17:39:11.443Z,92.50
2018-04-15T17:41:39.835Z,92.40
2018-04-15T17:44:08.069Z,92.90
2018-04-15T17:46:37.110Z,93.70
2018-04-15T17:49:09.079Z,93.70
2018-04-15T17:51:38.178Z,93.80
2018-04-15T17:54:09.080Z,93.70
2018-04-15T17:56:37.416Z,93.70
2018-04-15T17:59:07.135Z,94.40
2018-04-15T18:01:36.373Z,94.10
2018-04-15T18:04:04.572Z,94.10
2018-04-15T18:06:32.959Z,94.00
2018-04-15T18:09:01.221Z,94.70
2018-04-15T18:11:29.438Z,94.30
2018-04-15T18:13:58.503Z,93.60
2018-04-15T18:16:26.797Z,93.50
2018-04-15T18:18:55.057Z,94.30
2018-04-15T18:21:23.353Z,94.70
2018-04-15T18:23:51.641Z,94.30
2018-04-15T18:26:20.460Z,94.80
2018-04-15T18:29:07.312Z,94.80
2018-04-15T18:31:59.614Z,95.00
2018-04-15T18:37:39.839Z,96.20
2018-04-15T18:40:10.811Z,96.20
2018-04-15T18:42:39.071Z,96.50
2018-04-15T18:45:07.288Z,97.20
2018-04-15T18:47:35.640Z,97.40
2018-04-15T18:50:04.851Z,98.10
2018-04-15T18:52:33.849Z,98.40
2018-04-15T18:55:02.836Z,98.40
2018-04-15T18:57:31.183Z,98.40
2018-04-15T18:59:59.571Z,98.60
2018-04-15T19:02:27.793Z,99.10
2018-04-15T19:04:58.740Z,99.60
2018-04-15T19:07:29.749Z,99.90
2018-04-15T19:09:58.115Z,99.90
2018-04-15T19:12:26.315Z,99.90
2018-04-15T19:14:56.398Z,99.90
2018-04-15T19:17:24.628Z,99.90
2018-04-15T19:19:53.600Z,99.90
2018-04-15T19:22:21.790Z,99.90
2018-04-15T19:24:50.796Z,99.90
2018-04-15T19:27:19.960Z,99.90
2018-04-15T19:29:48.168Z,99.90
2018-04-15T19:32:16.510Z,99.90
2018-04-15T19:34:44.879Z,99.90
2018-04-15T19:37:13.105Z,99.90
2018-04-15T19:39:42.324Z,99.90
2018-04-15T19:42:10.556Z,99.90
2018-04-15T19:44:38.811Z,99.90
2018-04-15T19:47:07.215Z,99.90
2018-04-15T19:49:35.575Z,99.90
2018-04-15T19:52:04.079Z,99.90
2018-04-15T19:54:32.304Z,99.90
2018-04-15T19:57:01.156Z,99.90
2018-04-15T19:59:29.809Z,99.90
2018-04-15T20:01:58.042Z,99.90
2018-04-15T20:04:27.070Z,99.90
2018-04-15T20:06:56.183Z,99.90
2018-04-15T20:09:24.421Z,99.90
2018-04-15T20:11:52.705Z,99.90
2018-04-15T20:14:21.313Z,99.90
2018-04-15T20:16:50.407Z,99.90
2018-04-15T20:19:18.715Z,99.90
2018-04-15T20:21:46.986Z,99.90
2018-04-15T20:24:15.245Z,99.90
2018-04-15T20:26:43.636Z,99.90
2018-04-15T20:29:11.856Z,99.90
2018-04-15T20:31:41.615Z,99.90
2018-04-15T20:34:13.027Z,99.90
2018-04-15T20:36:41.919Z,99.90
2018-04-15T20:39:11.878Z,99.90
2018-04-15T20:41:40.180Z,99.90
2018-04-15T20:44:08.498Z,99.90
2018-04-15T20:46:36.762Z,99.90
2018-04-15T20:49:04.971Z,99.90
2018-04-15T20:51:33.964Z,99.90
2018-04-15T20:54:17.572Z,99.90
2018-04-15T20:56:45.776Z,99.90
2018-04-15T20:59:14.213Z,99.90
2018-04-15T21:01:43.245Z,99.90
2018-04-15T21:04:11.493Z,99.90
2018-04-15T21:06:41.422Z,99.90
2018-04-15T21:09:10.563Z,99.90
2018-04-15T21:11:38.883Z,99.90
2018-04-15T21:14:08.628Z,99.90
2018-04-15T21:16:37.491Z,99.90
2018-04-15T21:19:05.999Z,99.90
2018-04-15T21:21:34.465Z,99.90
2018-04-15T21:24:03.488Z,99.90
2018-04-15T21:26:32.026Z,99.90
2018-04-15T21:29:00.233Z,99.90
2018-04-15T21:31:28.591Z,99.90
2018-04-15T21:33:56.801Z,99.90
2018-04-15T21:36:25.105Z,99.90
2018-04-15T21:38:53.395Z,99.90
2018-04-15T21:41:21.695Z,99.90
2018-04-15T21:43:49.925Z,99.90
2018-04-15T21:46:18.357Z,99.90
2018-04-15T21:48:46.813Z,99.90
2018-04-15T21:51:15.081Z,99.90
2018-04-15T21:53:43.332Z,99.90
2018-04-15T21:56:12.393Z,99.90
2018-04-15T21:58:40.662Z,99.90
2018-04-15T22:01:08.948Z,99.90
2018-04-15T22:03:37.281Z,99.90
2018-04-15T22:06:06.370Z,99.90
2018-04-15T22:08:34.602Z,99.90
2018-04-15T22:11:03.665Z,99.90
2018-04-15T22:13:32.034Z,99.90
2018-04-15T22:16:00.430Z,99.90
2018-04-15T22:18:28.812Z,99.90
2018-04-15T22:20:57.910Z,99.90
2018-04-15T22:23:26.275Z,99.90
2018-04-15T22:25:54.498Z,99.90
2018-04-15T22:28:22.735Z,99.90
2018-04-15T22:30:51.107Z,99.90
2018-04-15T22:33:19.395Z,99.90
2018-04-15T22:35:47.624Z,99.90
2018-04-15T22:38:16.609Z,99.90
2018-04-15T22:40:45.626Z,99.90
2018-04-15T22:43:14.764Z,99.90
2018-04-15T22:45:43.040Z,99.90
2018-04-15T22:48:11.326Z,99.90
2018-04-15T22:50:39.584Z,99.90
2018-04-15T22:53:07.894Z,99.90
2018-04-15T22:55:36.254Z,99.90
2018-04-15T22:58:04.642Z,99.90
2018-04-15T23:00:32.873Z,99.90
2018-04-15T23:03:01.480Z,99.90
2018-04-15T23:05:29.776Z,99.90
2018-04-15T23:07:58.029Z,99.90
2018-04-15T23:10:26.387Z,99.90
2018-04-15T23:12:54.614Z,99.90
2018-04-15T23:15:22.999Z,99.90
2018-04-15T23:17:51.211Z,99.90
2018-04-15T23:20:19.419Z,99.90
2018-04-15T23:22:49.006Z,99.90
2018-04-15T23:25:17.980Z,99.90
2018-04-15T23:27:47.218Z,99.90
2018-04-15T23:30:16.164Z,99.90
2018-04-15T23:32:44.398Z,99.90
2018-04-15T23:35:12.644Z,99.90
2018-04-15T23:37:40.849Z,99.90
2018-04-15T23:40:10.018Z,99.90
2018-04-15T23:42:39.165Z,99.90
2018-04-15T23:45:08.130Z,99.90
2018-04-15T23:47:37.240Z,99.90
2018-04-15T23:50:05.653Z,99.90
2018-04-15T23:52:33.918Z,99.90
2018-04-15T23:55:02.121Z,99.90
2018-04-15T23:57:30.474Z,99.90
2018-04-15T23:59:58.674Z,99.90
